sensor_id;sensor_type;location;lat;lon;timestamp;P1;durP1;ratioP1;P2;durP2;ratioP2
438;SDS011;206;48.782;9.252;2023-04-07T00:00:40;5.60;;;5.30;;
438;SDS011;206;48.782;9.252;2023-04-07T00:03:05;6.10;;;5.60;;
438;SDS011;206;48.782;9.252;2023-04-07T00:05:31;8.77;;;6.00;;
438;SDS011;206;48.782;9.252;2023-04-07T00:07:57;6.23;;;5.50;;
438;SDS011;206;48.782;9.252;2023-04-07T00:10:23;6.10;;;5.67;;
438;SDS011;206;48.782;9.252;2023-04-07T00:12:49;7.90;;;5.90;;
438;SDS011;206;48.782;9.252;2023-04-07T00:15:15;6.67;;;6.27;;
438;SDS011;206;48.782;9.252;2023-04-07T00:17:41;6.53;;;4.33;;
438;SDS011;206;48.782;9.252;2023-04-07T00:20:06;8.53;;;6.40;;
438;SDS011;206;48.782;9.252;2023-04-07T00:22:32;5.47;;;5.20;;
438;SDS011;206;48.782;9.252;2023-04-07T00:24:58;7.27;;;5.87;;
438;SDS011;206;48.782;9.252;2023-04-07T00:27:23;5.70;;;5.33;;
438;SDS011;206;48.782;9.252;2023-04-07T00:29:49;5.93;;;5.47;;
438;SDS011;206;48.782;9.252;2023-04-07T00:32:14;8.40;;;5.53;;
438;SDS011;206;48.782;9.252;2023-04-07T00:34:40;5.87;;;5.50;;
438;SDS011;206;48.782;9.252;2023-04-07T00:37:06;6.77;;;5.37;;
438;SDS011;206;48.782;9.252;2023-04-07T00:39:31;7.20;;;6.27;;
438;SDS011;206;48.782;9.252;2023-04-07T00:41:57;5.83;;;4.87;;
438;SDS011;206;48.782;9.252;2023-04-07T00:44:23;7.80;;;6.40;;
438;SDS011;206;48.782;9.252;2023-04-07T00:46:48;6.47;;;6.07;;
438;SDS011;206;48.782;9.252;2023-04-07T00:49:14;7.80;;;5.70;;
438;SDS011;206;48.782;9.252;2023-04-07T00:51:41;8.20;;;7.07;;
438;SDS011;206;48.782;9.252;2023-04-07T00:54:09;7.40;;;6.27;;
438;SDS011;206;48.782;9.252;2023-04-07T00:56:35;8.10;;;6.40;;
438;SDS011;206;48.782;9.252;2023-04-07T00:59:01;8.43;;;6.97;;
438;SDS011;206;48.782;9.252;2023-04-07T01:01:29;7.23;;;6.83;;
438;SDS011;206;48.782;9.252;2023-04-07T01:04:04;7.23;;;6.43;;
438;SDS011;206;48.782;9.252;2023-04-07T01:06:34;7.83;;;6.83;;
438;SDS011;206;48.782;9.252;2023-04-07T01:09:04;7.77;;;6.80;;
438;SDS011;206;48.782;9.252;2023-04-07T01:11:41;8.80;;;6.40;;
438;SDS011;206;48.782;9.252;2023-04-07T01:14:12;5.93;;;5.67;;
438;SDS011;206;48.782;9.252;2023-04-07T01:16:46;8.47;;;6.37;;
438;SDS011;206;48.782;9.252;2023-04-07T01:22:06;9.40;;;7.30;;
438;SDS011;206;48.782;9.252;2023-04-07T01:27:53;9.40;;;7.13;;
438;SDS011;206;48.782;9.252;2023-04-07T01:30:38;8.17;;;7.20;;
438;SDS011;206;48.782;9.252;2023-04-07T01:33:08;10.33;;;7.07;;
438;SDS011;206;48.782;9.252;2023-04-07T01:35:35;7.87;;;7.40;;
438;SDS011;206;48.782;9.252;2023-04-07T01:38:03;8.07;;;7.63;;
438;SDS011;206;48.782;9.252;2023-04-07T01:40:31;8.50;;;7.90;;
438;SDS011;206;48.782;9.252;2023-04-07T01:42:59;8.50;;;7.30;;
438;SDS011;206;48.782;9.252;2023-04-07T01:45:25;10.20;;;7.73;;
438;SDS011;206;48.782;9.252;2023-04-07T01:47:53;8.77;;;6.87;;
438;SDS011;206;48.782;9.252;2023-04-07T01:50:19;8.13;;;6.60;;
438;SDS011;206;48.782;9.252;2023-04-07T01:52:45;7.03;;;6.50;;
438;SDS011;206;48.782;9.252;2023-04-07T01:55:12;9.03;;;8.03;;
438;SDS011;206;48.782;9.252;2023-04-07T01:57:38;7.90;;;7.50;;
438;SDS011;206;48.782;9.252;2023-04-07T02:00:04;7.97;;;6.63;;
438;SDS011;206;48.782;9.252;2023-04-07T02:02:32;10.23;;;8.47;;
438;SDS011;206;48.782;9.252;2023-04-07T02:05:02;9.27;;;8.07;;
438;SDS011;206;48.782;9.252;2023-04-07T02:07:45;9.30;;;7.80;;
438;SDS011;206;48.782;9.252;2023-04-07T02:10:20;10.50;;;8.10;;
438;SDS011;206;48.782;9.252;2023-04-07T02:12:48;10.37;;;7.70;;
438;SDS011;206;48.782;9.252;2023-04-07T02:15:14;11.07;;;7.80;;
438;SDS011;206;48.782;9.252;2023-04-07T02:17:43;9.37;;;7.93;;
438;SDS011;206;48.782;9.252;2023-04-07T02:20:13;7.77;;;7.10;;
438;SDS011;206;48.782;9.252;2023-04-07T02:22:40;9.03;;;7.17;;
438;SDS011;206;48.782;9.252;2023-04-07T02:25:30;9.20;;;7.50;;
438;SDS011;206;48.782;9.252;2023-04-07T02:27:55;8.27;;;7.23;;
438;SDS011;206;48.782;9.252;2023-04-07T02:30:22;9.97;;;8.00;;
438;SDS011;206;48.782;9.252;2023-04-07T02:32:48;8.13;;;6.57;;
438;SDS011;206;48.782;9.252;2023-04-07T02:35:14;9.93;;;6.60;;
438;SDS011;206;48.782;9.252;2023-04-07T02:37:41;9.30;;;6.97;;
438;SDS011;206;48.782;9.252;2023-04-07T02:40:07;8.10;;;7.70;;
438;SDS011;206;48.782;9.252;2023-04-07T02:42:33;8.53;;;7.30;;
438;SDS011;206;48.782;9.252;2023-04-07T02:45:00;9.67;;;8.27;;
438;SDS011;206;48.782;9.252;2023-04-07T02:47:26;9.47;;;7.63;;
438;SDS011;206;48.782;9.252;2023-04-07T02:49:51;10.33;;;8.37;;
438;SDS011;206;48.782;9.252;2023-04-07T02:52:17;8.70;;;7.83;;
438;SDS011;206;48.782;9.252;2023-04-07T02:54:43;8.70;;;7.37;;
438;SDS011;206;48.782;9.252;2023-04-07T02:57:08;8.83;;;6.90;;
438;SDS011;206;48.782;9.252;2023-04-07T02:59:34;7.77;;;7.40;;
438;SDS011;206;48.782;9.252;2023-04-07T03:01:59;11.47;;;9.07;;
438;SDS011;206;48.782;9.252;2023-04-07T03:04:25;11.30;;;7.87;;
438;SDS011;206;48.782;9.252;2023-04-07T03:06:51;8.30;;;7.30;;
438;SDS011;206;48.782;9.252;2023-04-07T03:09:17;10.00;;;7.90;;
438;SDS011;206;48.782;9.252;2023-04-07T03:11:42;7.10;;;6.40;;
438;SDS011;206;48.782;9.252;2023-04-07T03:14:08;9.07;;;7.43;;
438;SDS011;206;48.782;9.252;2023-04-07T03:16:34;10.60;;;7.40;;
438;SDS011;206;48.782;9.252;2023-04-07T03:18:59;12.70;;;8.77;;
438;SDS011;206;48.782;9.252;2023-04-07T03:21:25;9.43;;;7.63;;
438;SDS011;206;48.782;9.252;2023-04-07T03:23:52;9.67;;;8.40;;
438;SDS011;206;48.782;9.252;2023-04-07T03:26:18;9.03;;;7.30;;
438;SDS011;206;48.782;9.252;2023-04-07T03:28:44;8.20;;;7.60;;
438;SDS011;206;48.782;9.252;2023-04-07T03:31:09;7.57;;;7.03;;
438;SDS011;206;48.782;9.252;2023-04-07T03:33:35;9.63;;;7.43;;
438;SDS011;206;48.782;9.252;2023-04-07T03:36:00;11.10;;;9.33;;
438;SDS011;206;48.782;9.252;2023-04-07T03:38:26;11.73;;;7.87;;
438;SDS011;206;48.782;9.252;2023-04-07T03:40:51;8.97;;;7.90;;
438;SDS011;206;48.782;9.252;2023-04-07T03:43:17;9.83;;;7.70;;
438;SDS011;206;48.782;9.252;2023-04-07T03:45:43;9.70;;;7.30;;
438;SDS011;206;48.782;9.252;2023-04-07T03:48:08;10.63;;;8.47;;
438;SDS011;206;48.782;9.252;2023-04-07T03:50:37;12.40;;;7.93;;
438;SDS011;206;48.782;9.252;2023-04-07T03:53:03;9.53;;;7.00;;
438;SDS011;206;48.782;9.252;2023-04-07T03:55:29;9.10;;;7.63;;
438;SDS011;206;48.782;9.252;2023-04-07T03:57:56;11.43;;;9.63;;
438;SDS011;206;48.782;9.252;2023-04-07T04:00:22;7.33;;;6.70;;
438;SDS011;206;48.782;9.252;2023-04-07T04:02:47;10.60;;;7.80;;
438;SDS011;206;48.782;9.252;2023-04-07T04:05:13;7.97;;;7.13;;
438;SDS011;206;48.782;9.252;2023-04-07T04:07:39;10.80;;;7.40;;
438;SDS011;206;48.782;9.252;2023-04-07T04:10:05;11.10;;;10.40;;
438;SDS011;206;48.782;9.252;2023-04-07T04:12:31;9.77;;;8.47;;
438;SDS011;206;48.782;9.252;2023-04-07T04:14:57;10.80;;;7.97;;
438;SDS011;206;48.782;9.252;2023-04-07T04:17:23;10.23;;;8.20;;
438;SDS011;206;48.782;9.252;2023-04-07T04:19:49;9.77;;;8.90;;
438;SDS011;206;48.782;9.252;2023-04-07T04:22:15;10.70;;;8.10;;
438;SDS011;206;48.782;9.252;2023-04-07T04:24:41;9.10;;;8.07;;
438;SDS011;206;48.782;9.252;2023-04-07T04:27:06;9.63;;;8.30;;
438;SDS011;206;48.782;9.252;2023-04-07T04:29:32;13.40;;;8.13;;
438;SDS011;206;48.782;9.252;2023-04-07T04:31:58;9.80;;;8.33;;
438;SDS011;206;48.782;9.252;2023-04-07T04:34:23;12.07;;;8.77;;
438;SDS011;206;48.782;9.252;2023-04-07T04:36:49;12.63;;;9.70;;
438;SDS011;206;48.782;9.252;2023-04-07T04:39:15;10.80;;;8.87;;
438;SDS011;206;48.782;9.252;2023-04-07T04:41:40;10.97;;;9.07;;
438;SDS011;206;48.782;9.252;2023-04-07T04:44:06;9.23;;;8.20;;
438;SDS011;206;48.782;9.252;2023-04-07T04:46:31;11.47;;;9.40;;
438;SDS011;206;48.782;9.252;2023-04-07T04:48:57;10.30;;;8.63;;
438;SDS011;206;48.782;9.252;2023-04-07T04:51:23;10.50;;;8.90;;
438;SDS011;206;48.782;9.252;2023-04-07T04:53:48;10.33;;;8.20;;
438;SDS011;206;48.782;9.252;2023-04-07T04:56:14;8.33;;;7.53;;
438;SDS011;206;48.782;9.252;2023-04-07T04:58:40;11.20;;;8.00;;
438;SDS011;206;48.782;9.252;2023-04-07T05:01:10;12.67;;;9.23;;
438;SDS011;206;48.782;9.252;2023-04-07T05:03:36;11.60;;;10.70;;
438;SDS011;206;48.782;9.252;2023-04-07T05:06:01;11.60;;;9.50;;
438;SDS011;206;48.782;9.252;2023-04-07T05:08:27;11.50;;;8.73;;
438;SDS011;206;48.782;9.252;2023-04-07T05:10:53;9.33;;;8.83;;
438;SDS011;206;48.782;9.252;2023-04-07T05:13:19;14.00;;;10.20;;
438;SDS011;206;48.782;9.252;2023-04-07T05:15:45;11.50;;;9.40;;
438;SDS011;206;48.782;9.252;2023-04-07T05:18:11;14.10;;;8.93;;
438;SDS011;206;48.782;9.252;2023-04-07T05:20:36;11.00;;;8.60;;
438;SDS011;206;48.782;9.252;2023-04-07T05:23:02;9.73;;;8.07;;
438;SDS011;206;48.782;9.252;2023-04-07T05:25:28;11.23;;;9.23;;
438;SDS011;206;48.782;9.252;2023-04-07T05:27:53;9.50;;;8.40;;
438;SDS011;206;48.782;9.252;2023-04-07T05:30:19;10.50;;;8.37;;
438;SDS011;206;48.782;9.252;2023-04-07T05:32:45;9.70;;;8.50;;
438;SDS011;206;48.782;9.252;2023-04-07T05:35:10;8.90;;;8.40;;
438;SDS011;206;48.782;9.252;2023-04-07T05:37:36;15.03;;;8.40;;
438;SDS011;206;48.782;9.252;2023-04-07T05:40:02;10.90;;;8.50;;
438;SDS011;206;48.782;9.252;2023-04-07T05:42:28;10.67;;;9.17;;
438;SDS011;206;48.782;9.252;2023-04-07T05:44:54;11.47;;;9.60;;
438;SDS011;206;48.782;9.252;2023-04-07T05:47:20;11.07;;;8.27;;
438;SDS011;206;48.782;9.252;2023-04-07T05:49:45;11.10;;;8.73;;
438;SDS011;206;48.782;9.252;2023-04-07T05:52:12;12.43;;;10.07;;
438;SDS011;206;48.782;9.252;2023-04-07T05:54:37;10.37;;;8.80;;
438;SDS011;206;48.782;9.252;2023-04-07T05:57:04;12.13;;;9.57;;
438;SDS011;206;48.782;9.252;2023-04-07T05:59:31;11.27;;;8.90;;
438;SDS011;206;48.782;9.252;2023-04-07T06:01:57;12.03;;;9.80;;
438;SDS011;206;48.782;9.252;2023-04-07T06:04:22;10.73;;;9.90;;
438;SDS011;206;48.782;9.252;2023-04-07T06:06:48;12.67;;;9.60;;
438;SDS011;206;48.782;9.252;2023-04-07T06:09:14;11.17;;;9.60;;
438;SDS011;206;48.782;9.252;2023-04-07T06:11:39;12.57;;;7.93;;
438;SDS011;206;48.782;9.252;2023-04-07T06:14:05;13.97;;;11.40;;
438;SDS011;206;48.782;9.252;2023-04-07T06:16:30;11.90;;;10.83;;
438;SDS011;206;48.782;9.252;2023-04-07T06:18:56;11.50;;;9.43;;
438;SDS011;206;48.782;9.252;2023-04-07T06:21:22;13.47;;;10.50;;
438;SDS011;206;48.782;9.252;2023-04-07T06:23:48;13.47;;;9.90;;
438;SDS011;206;48.782;9.252;2023-04-07T06:26:14;11.90;;;9.47;;
438;SDS011;206;48.782;9.252;2023-04-07T06:28:40;10.43;;;9.30;;
438;SDS011;206;48.782;9.252;2023-04-07T06:31:06;11.00;;;9.60;;
438;SDS011;206;48.782;9.252;2023-04-07T06:33:32;12.57;;;10.27;;
438;SDS011;206;48.782;9.252;2023-04-07T06:35:58;11.13;;;9.90;;
438;SDS011;206;48.782;9.252;2023-04-07T06:38:23;10.83;;;9.63;;
438;SDS011;206;48.782;9.252;2023-04-07T06:40:50;10.67;;;9.10;;
438;SDS011;206;48.782;9.252;2023-04-07T06:43:15;10.53;;;9.37;;
438;SDS011;206;48.782;9.252;2023-04-07T06:45:41;13.23;;;10.20;;
438;SDS011;206;48.782;9.252;2023-04-07T06:48:07;10.60;;;9.90;;
438;SDS011;206;48.782;9.252;2023-04-07T06:50:34;15.13;;;10.47;;
438;SDS011;206;48.782;9.252;2023-04-07T06:53:01;11.67;;;9.50;;
438;SDS011;206;48.782;9.252;2023-04-07T06:55:27;13.23;;;10.27;;
438;SDS011;206;48.782;9.252;2023-04-07T06:57:52;11.20;;;10.27;;
438;SDS011;206;48.782;9.252;2023-04-07T07:00:18;10.90;;;10.30;;
438;SDS011;206;48.782;9.252;2023-04-07T07:02:44;11.93;;;9.97;;
438;SDS011;206;48.782;9.252;2023-04-07T07:05:09;13.00;;;9.77;;
438;SDS011;206;48.782;9.252;2023-04-07T07:07:35;9.57;;;8.73;;
438;SDS011;206;48.782;9.252;2023-04-07T07:10:01;9.13;;;8.20;;
438;SDS011;206;48.782;9.252;2023-04-07T07:12:27;12.63;;;8.40;;
438;SDS011;206;48.782;9.252;2023-04-07T07:14:53;12.20;;;9.53;;
438;SDS011;206;48.782;9.252;2023-04-07T07:17:18;8.67;;;8.23;;
438;SDS011;206;48.782;9.252;2023-04-07T07:19:44;11.50;;;9.20;;
438;SDS011;206;48.782;9.252;2023-04-07T07:22:09;12.30;;;10.10;;
438;SDS011;206;48.782;9.252;2023-04-07T07:24:35;9.27;;;8.77;;
438;SDS011;206;48.782;9.252;2023-04-07T07:27:01;11.43;;;9.57;;
438;SDS011;206;48.782;9.252;2023-04-07T07:29:27;9.20;;;8.73;;
438;SDS011;206;48.782;9.252;2023-04-07T07:31:53;10.27;;;9.67;;
438;SDS011;206;48.782;9.252;2023-04-07T07:34:18;11.33;;;8.97;;
438;SDS011;206;48.782;9.252;2023-04-07T07:36:44;10.07;;;9.07;;
438;SDS011;206;48.782;9.252;2023-04-07T07:39:09;9.70;;;7.77;;
438;SDS011;206;48.782;9.252;2023-04-07T07:41:35;8.80;;;8.30;;
438;SDS011;206;48.782;9.252;2023-04-07T07:44:01;8.67;;;8.20;;
438;SDS011;206;48.782;9.252;2023-04-07T07:46:26;10.03;;;7.93;;
438;SDS011;206;48.782;9.252;2023-04-07T07:48:52;9.83;;;8.40;;
438;SDS011;206;48.782;9.252;2023-04-07T07:51:18;8.30;;;7.80;;
438;SDS011;206;48.782;9.252;2023-04-07T07:53:43;10.20;;;9.10;;
438;SDS011;206;48.782;9.252;2023-04-07T07:56:10;14.00;;;8.40;;
438;SDS011;206;48.782;9.252;2023-04-07T07:58:35;9.40;;;8.20;;
438;SDS011;206;48.782;9.252;2023-04-07T08:01:01;11.10;;;9.07;;
438;SDS011;206;48.782;9.252;2023-04-07T08:03:27;10.37;;;9.83;;
438;SDS011;206;48.782;9.252;2023-04-07T08:05:52;14.33;;;9.07;;
438;SDS011;206;48.782;9.252;2023-04-07T08:08:18;10.97;;;8.93;;
438;SDS011;206;48.782;9.252;2023-04-07T08:10:44;9.40;;;7.17;;
438;SDS011;206;48.782;9.252;2023-04-07T08:13:10;11.43;;;8.00;;
438;SDS011;206;48.782;9.252;2023-04-07T08:15:35;8.20;;;7.70;;
438;SDS011;206;48.782;9.252;2023-04-07T08:18:01;11.40;;;8.40;;
438;SDS011;206;48.782;9.252;2023-04-07T08:20:29;8.90;;;7.73;;
438;SDS011;206;48.782;9.252;2023-04-07T08:22:55;9.27;;;8.33;;
438;SDS011;206;48.782;9.252;2023-04-07T08:25:21;16.23;;;6.50;;
438;SDS011;206;48.782;9.252;2023-04-07T08:27:47;10.10;;;9.43;;
438;SDS011;206;48.782;9.252;2023-04-07T08:30:12;10.37;;;8.33;;
438;SDS011;206;48.782;9.252;2023-04-07T08:32:42;7.83;;;7.43;;
438;SDS011;206;48.782;9.252;2023-04-07T08:35:08;7.90;;;6.73;;
438;SDS011;206;48.782;9.252;2023-04-07T08:37:35;7.80;;;6.90;;
438;SDS011;206;48.782;9.252;2023-04-07T08:40:02;6.77;;;6.27;;
438;SDS011;206;48.782;9.252;2023-04-07T08:42:28;6.87;;;5.73;;
438;SDS011;206;48.782;9.252;2023-04-07T08:44:56;5.90;;;5.40;;
438;SDS011;206;48.782;9.252;2023-04-07T08:47:26;5.63;;;5.20;;
438;SDS011;206;48.782;9.252;2023-04-07T08:49:56;6.60;;;5.70;;
438;SDS011;206;48.782;9.252;2023-04-07T08:52:25;7.00;;;5.27;;
438;SDS011;206;48.782;9.252;2023-04-07T08:55:14;5.73;;;4.70;;
438;SDS011;206;48.782;9.252;2023-04-07T08:57:40;7.63;;;7.23;;
438;SDS011;206;48.782;9.252;2023-04-07T09:00:06;11.73;;;5.30;;
438;SDS011;206;48.782;9.252;2023-04-07T09:02:36;6.03;;;5.73;;
438;SDS011;206;48.782;9.252;2023-04-07T09:05:04;8.10;;;6.07;;
438;SDS011;206;48.782;9.252;2023-04-07T09:07:32;6.23;;;5.90;;
438;SDS011;206;48.782;9.252;2023-04-07T09:10:02;6.23;;;5.00;;
438;SDS011;206;48.782;9.252;2023-04-07T09:12:29;5.70;;;4.77;;
438;SDS011;206;48.782;9.252;2023-04-07T09:14:56;7.57;;;5.00;;
438;SDS011;206;48.782;9.252;2023-04-07T09:17:21;5.83;;;5.20;;
438;SDS011;206;48.782;9.252;2023-04-07T09:19:56;6.73;;;6.00;;
438;SDS011;206;48.782;9.252;2023-04-07T09:22:38;5.33;;;5.03;;
438;SDS011;206;48.782;9.252;2023-04-07T09:25:22;6.47;;;4.90;;
438;SDS011;206;48.782;9.252;2023-04-07T09:28:00;5.80;;;5.13;;
438;SDS011;206;48.782;9.252;2023-04-07T09:30:28;6.20;;;4.60;;
438;SDS011;206;48.782;9.252;2023-04-07T09:32:55;9.30;;;6.00;;
438;SDS011;206;48.782;9.252;2023-04-07T09:35:21;5.70;;;5.33;;
438;SDS011;206;48.782;9.252;2023-04-07T09:38:04;7.53;;;5.47;;
438;SDS011;206;48.782;9.252;2023-04-07T09:40:31;6.70;;;5.40;;
438;SDS011;206;48.782;9.252;2023-04-07T09:42:57;6.33;;;5.90;;
438;SDS011;206;48.782;9.252;2023-04-07T09:45:24;8.90;;;5.70;;
438;SDS011;206;48.782;9.252;2023-04-07T09:47:50;7.10;;;5.83;;
438;SDS011;206;48.782;9.252;2023-04-07T09:50:29;8.10;;;5.97;;
438;SDS011;206;48.782;9.252;2023-04-07T09:52:56;5.00;;;4.20;;
438;SDS011;206;48.782;9.252;2023-04-07T09:55:22;5.70;;;5.00;;
438;SDS011;206;48.782;9.252;2023-04-07T09:57:51;6.17;;;5.13;;
438;SDS011;206;48.782;9.252;2023-04-07T10:00:19;5.47;;;5.00;;
438;SDS011;206;48.782;9.252;2023-04-07T10:02:45;6.23;;;5.37;;
438;SDS011;206;48.782;9.252;2023-04-07T10:05:11;8.67;;;5.70;;
438;SDS011;206;48.782;9.252;2023-04-07T10:07:37;5.77;;;4.97;;
438;SDS011;206;48.782;9.252;2023-04-07T10:10:04;7.70;;;6.40;;
438;SDS011;206;48.782;9.252;2023-04-07T10:12:33;7.57;;;7.20;;
438;SDS011;206;48.782;9.252;2023-04-07T10:15:00;7.53;;;5.37;;
438;SDS011;206;48.782;9.252;2023-04-07T10:17:26;6.10;;;5.30;;
438;SDS011;206;48.782;9.252;2023-04-07T10:19:53;6.17;;;5.90;;
438;SDS011;206;48.782;9.252;2023-04-07T10:22:21;13.87;;;5.00;;
438;SDS011;206;48.782;9.252;2023-04-07T10:27:34;5.40;;;5.10;;
438;SDS011;206;48.782;9.252;2023-04-07T10:30:05;5.17;;;4.80;;
438;SDS011;206;48.782;9.252;2023-04-07T10:32:47;5.97;;;4.60;;
438;SDS011;206;48.782;9.252;2023-04-07T10:35:13;5.73;;;4.80;;
438;SDS011;206;48.782;9.252;2023-04-07T10:37:39;6.10;;;5.00;;
438;SDS011;206;48.782;9.252;2023-04-07T10:45:09;7.30;;;5.60;;
438;SDS011;206;48.782;9.252;2023-04-07T10:48:10;5.00;;;4.67;;
438;SDS011;206;48.782;9.252;2023-04-07T10:50:28;5.33;;;5.03;;
438;SDS011;206;48.782;9.252;2023-04-07T10:53:04;5.80;;;5.38;;
438;SDS011;206;48.782;9.252;2023-04-07T10:55:35;6.60;;;6.20;;
438;SDS011;206;48.782;9.252;2023-04-07T10:58:14;4.97;;;4.43;;
438;SDS011;206;48.782;9.252;2023-04-07T11:03:24;4.70;;;4.17;;
438;SDS011;206;48.782;9.252;2023-04-07T11:05:51;8.80;;;5.97;;
438;SDS011;206;48.782;9.252;2023-04-07T11:08:50;4.93;;;3.93;;
438;SDS011;206;48.782;9.252;2023-04-07T11:11:10;8.10;;;4.57;;
438;SDS011;206;48.782;9.252;2023-04-07T11:13:44;5.93;;;4.83;;
438;SDS011;206;48.782;9.252;2023-04-07T11:16:11;6.77;;;4.20;;
438;SDS011;206;48.782;9.252;2023-04-07T11:18:38;7.13;;;4.77;;
438;SDS011;206;48.782;9.252;2023-04-07T11:21:04;6.23;;;4.83;;
438;SDS011;206;48.782;9.252;2023-04-07T11:23:40;4.07;;;3.87;;
438;SDS011;206;48.782;9.252;2023-04-07T11:26:08;3.87;;;3.67;;
438;SDS011;206;48.782;9.252;2023-04-07T11:28:45;7.63;;;4.10;;
438;SDS011;206;48.782;9.252;2023-04-07T11:31:14;5.13;;;3.73;;
438;SDS011;206;48.782;9.252;2023-04-07T11:33:50;8.50;;;4.00;;
438;SDS011;206;48.782;9.252;2023-04-07T11:36:24;3.13;;;2.93;;
438;SDS011;206;48.782;9.252;2023-04-07T11:38:52;7.10;;;4.27;;
438;SDS011;206;48.782;9.252;2023-04-07T11:41:18;4.83;;;3.67;;
438;SDS011;206;48.782;9.252;2023-04-07T11:43:43;6.33;;;4.20;;
438;SDS011;206;48.782;9.252;2023-04-07T11:46:10;8.60;;;4.37;;
438;SDS011;206;48.782;9.252;2023-04-07T11:48:38;4.50;;;4.27;;
438;SDS011;206;48.782;9.252;2023-04-07T11:51:05;10.17;;;5.20;;
438;SDS011;206;48.782;9.252;2023-04-07T11:53:38;3.73;;;3.43;;
438;SDS011;206;48.782;9.252;2023-04-07T11:56:05;5.90;;;4.70;;
438;SDS011;206;48.782;9.252;2023-04-07T11:58:34;7.40;;;4.57;;
438;SDS011;206;48.782;9.252;2023-04-07T12:01:04;4.70;;;4.10;;
438;SDS011;206;48.782;9.252;2023-04-07T12:03:33;6.73;;;4.27;;
438;SDS011;206;48.782;9.252;2023-04-07T12:06:00;6.03;;;4.70;;
438;SDS011;206;48.782;9.252;2023-04-07T12:08:36;4.03;;;3.87;;
438;SDS011;206;48.782;9.252;2023-04-07T12:11:03;8.50;;;3.80;;
438;SDS011;206;48.782;9.252;2023-04-07T12:13:29;6.00;;;3.80;;
438;SDS011;206;48.782;9.252;2023-04-07T12:15:55;7.93;;;3.70;;
438;SDS011;206;48.782;9.252;2023-04-07T12:18:22;4.93;;;3.90;;
438;SDS011;206;48.782;9.252;2023-04-07T12:20:49;10.37;;;4.43;;
438;SDS011;206;48.782;9.252;2023-04-07T12:23:15;6.95;;;5.00;;
438;SDS011;206;48.782;9.252;2023-04-07T12:25:40;6.67;;;4.87;;
438;SDS011;206;48.782;9.252;2023-04-07T12:28:06;5.57;;;4.90;;
438;SDS011;206;48.782;9.252;2023-04-07T12:30:32;8.30;;;5.20;;
438;SDS011;206;48.782;9.252;2023-04-07T12:32:57;5.33;;;5.03;;
438;SDS011;206;48.782;9.252;2023-04-07T12:35:23;4.93;;;4.30;;
438;SDS011;206;48.782;9.252;2023-04-07T12:37:49;6.47;;;5.63;;
438;SDS011;206;48.782;9.252;2023-04-07T12:40:15;7.40;;;5.47;;
438;SDS011;206;48.782;9.252;2023-04-07T12:42:41;6.03;;;4.17;;
438;SDS011;206;48.782;9.252;2023-04-07T12:45:07;4.70;;;3.90;;
438;SDS011;206;48.782;9.252;2023-04-07T12:47:33;4.13;;;3.50;;
438;SDS011;206;48.782;9.252;2023-04-07T12:49:58;2.60;;;2.40;;
438;SDS011;206;48.782;9.252;2023-04-07T12:52:25;2.73;;;2.57;;
438;SDS011;206;48.782;9.252;2023-04-07T12:54:51;4.37;;;2.67;;
438;SDS011;206;48.782;9.252;2023-04-07T12:57:17;3.80;;;2.70;;
438;SDS011;206;48.782;9.252;2023-04-07T12:59:43;2.63;;;1.90;;
438;SDS011;206;48.782;9.252;2023-04-07T13:02:09;4.60;;;2.30;;
438;SDS011;206;48.782;9.252;2023-04-07T13:04:37;2.80;;;1.47;;
438;SDS011;206;48.782;9.252;2023-04-07T13:07:04;2.67;;;1.63;;
438;SDS011;206;48.782;9.252;2023-04-07T13:09:30;1.87;;;1.70;;
438;SDS011;206;48.782;9.252;2023-04-07T13:11:57;1.77;;;1.67;;
438;SDS011;206;48.782;9.252;2023-04-07T13:14:22;2.57;;;1.80;;
438;SDS011;206;48.782;9.252;2023-04-07T13:16:48;2.30;;;1.50;;
438;SDS011;206;48.782;9.252;2023-04-07T13:19:14;2.07;;;1.37;;
438;SDS011;206;48.782;9.252;2023-04-07T13:21:40;2.20;;;1.93;;
438;SDS011;206;48.782;9.252;2023-04-07T13:24:05;2.40;;;1.53;;
438;SDS011;206;48.782;9.252;2023-04-07T13:26:31;3.40;;;1.73;;
438;SDS011;206;48.782;9.252;2023-04-07T13:28:57;5.17;;;1.83;;
438;SDS011;206;48.782;9.252;2023-04-07T13:31:22;3.00;;;1.90;;
438;SDS011;206;48.782;9.252;2023-04-07T13:33:53;2.23;;;1.93;;
438;SDS011;206;48.782;9.252;2023-04-07T13:36:18;3.67;;;2.13;;
438;SDS011;206;48.782;9.252;2023-04-07T13:38:45;2.43;;;1.57;;
438;SDS011;206;48.782;9.252;2023-04-07T13:41:10;3.37;;;1.93;;
438;SDS011;206;48.782;9.252;2023-04-07T13:43:36;4.23;;;2.23;;
438;SDS011;206;48.782;9.252;2023-04-07T13:46:01;4.80;;;2.30;;
438;SDS011;206;48.782;9.252;2023-04-07T13:48:27;2.90;;;2.73;;
438;SDS011;206;48.782;9.252;2023-04-07T13:50:53;29.53;;;26.20;;
438;SDS011;206;48.782;9.252;2023-04-07T13:53:18;3.00;;;2.80;;
438;SDS011;206;48.782;9.252;2023-04-07T13:55:44;4.03;;;3.17;;
438;SDS011;206;48.782;9.252;2023-04-07T13:58:10;3.40;;;3.30;;
438;SDS011;206;48.782;9.252;2023-04-07T14:00:35;3.70;;;3.00;;
438;SDS011;206;48.782;9.252;2023-04-07T14:03:02;3.00;;;2.83;;
438;SDS011;206;48.782;9.252;2023-04-07T14:05:28;3.60;;;2.90;;
438;SDS011;206;48.782;9.252;2023-04-07T14:07:53;4.10;;;2.90;;
438;SDS011;206;48.782;9.252;2023-04-07T14:10:19;5.00;;;3.00;;
438;SDS011;206;48.782;9.252;2023-04-07T14:12:45;10.23;;;7.80;;
438;SDS011;206;48.782;9.252;2023-04-07T14:15:11;8.57;;;6.73;;
438;SDS011;206;48.782;9.252;2023-04-07T14:17:36;6.70;;;6.30;;
438;SDS011;206;48.782;9.252;2023-04-07T14:20:02;5.10;;;3.97;;
438;SDS011;206;48.782;9.252;2023-04-07T14:22:28;13.33;;;10.97;;
438;SDS011;206;48.782;9.252;2023-04-07T14:24:54;7.00;;;3.70;;
438;SDS011;206;48.782;9.252;2023-04-07T14:27:20;3.13;;;2.93;;
438;SDS011;206;48.782;9.252;2023-04-07T14:29:49;5.00;;;4.70;;
438;SDS011;206;48.782;9.252;2023-04-07T14:32:15;5.13;;;3.30;;
438;SDS011;206;48.782;9.252;2023-04-07T14:34:41;5.03;;;3.70;;
438;SDS011;206;48.782;9.252;2023-04-07T14:37:06;8.87;;;8.30;;
438;SDS011;206;48.782;9.252;2023-04-07T14:39:32;3.70;;;3.50;;
438;SDS011;206;48.782;9.252;2023-04-07T14:41:58;4.37;;;3.67;;
438;SDS011;206;48.782;9.252;2023-04-07T14:44:24;6.10;;;4.47;;
438;SDS011;206;48.782;9.252;2023-04-07T14:46:51;4.60;;;3.80;;
438;SDS011;206;48.782;9.252;2023-04-07T14:49:16;3.80;;;3.33;;
438;SDS011;206;48.782;9.252;2023-04-07T14:51:42;8.53;;;4.77;;
438;SDS011;206;48.782;9.252;2023-04-07T14:54:08;11.07;;;10.00;;
438;SDS011;206;48.782;9.252;2023-04-07T14:56:34;13.40;;;11.33;;
438;SDS011;206;48.782;9.252;2023-04-07T14:59:00;5.33;;;4.20;;
438;SDS011;206;48.782;9.252;2023-04-07T15:01:25;5.27;;;4.07;;
438;SDS011;206;48.782;9.252;2023-04-07T15:03:51;7.27;;;3.93;;
438;SDS011;206;48.782;9.252;2023-04-07T15:06:17;5.53;;;5.27;;
438;SDS011;206;48.782;9.252;2023-04-07T15:08:43;6.87;;;5.13;;
438;SDS011;206;48.782;9.252;2023-04-07T15:11:09;3.67;;;3.53;;
438;SDS011;206;48.782;9.252;2023-04-07T15:13:34;5.63;;;2.90;;
438;SDS011;206;48.782;9.252;2023-04-07T15:16:10;3.30;;;2.93;;
438;SDS011;206;48.782;9.252;2023-04-07T15:18:38;3.63;;;3.40;;
438;SDS011;206;48.782;9.252;2023-04-07T15:21:06;6.10;;;2.80;;
438;SDS011;206;48.782;9.252;2023-04-07T15:23:33;6.30;;;2.60;;
438;SDS011;206;48.782;9.252;2023-04-07T15:26:01;5.40;;;3.53;;
438;SDS011;206;48.782;9.252;2023-04-07T15:28:27;4.77;;;2.93;;
438;SDS011;206;48.782;9.252;2023-04-07T15:30:53;3.40;;;2.77;;
438;SDS011;206;48.782;9.252;2023-04-07T15:33:18;5.23;;;3.30;;
438;SDS011;206;48.782;9.252;2023-04-07T15:35:44;5.03;;;3.00;;
438;SDS011;206;48.782;9.252;2023-04-07T15:38:10;8.70;;;3.70;;
438;SDS011;206;48.782;9.252;2023-04-07T15:40:36;5.37;;;3.70;;
438;SDS011;206;48.782;9.252;2023-04-07T15:43:02;3.90;;;2.90;;
438;SDS011;206;48.782;9.252;2023-04-07T15:45:28;8.37;;;3.70;;
438;SDS011;206;48.782;9.252;2023-04-07T15:47:54;5.40;;;4.43;;
438;SDS011;206;48.782;9.252;2023-04-07T15:50:20;5.83;;;3.90;;
438;SDS011;206;48.782;9.252;2023-04-07T15:52:45;5.67;;;4.27;;
438;SDS011;206;48.782;9.252;2023-04-07T15:55:11;6.20;;;4.10;;